createdAt,value
2023-05-19T00:01:00.599Z,7.93
2023-05-19T00:03:28.126Z,8.73
2023-05-19T00:05:59.056Z,8.27
2023-05-19T00:08:29.182Z,8.68
2023-05-19T00:10:57.088Z,8.98
2023-05-19T00:13:24.659Z,8.45
2023-05-19T00:15:53.789Z,9.10
2023-05-19T00:18:21.200Z,8.98
2023-05-19T00:20:48.833Z,8.98
2023-05-19T00:23:15.857Z,8.25
2023-05-19T00:25:43.489Z,8.45
2023-05-19T00:28:10.525Z,7.80
2023-05-19T00:30:37.949Z,8.35
2023-05-19T00:33:05.097Z,8.05
2023-05-19T00:35:32.657Z,8.48
2023-05-19T00:37:59.704Z,8.75
2023-05-19T00:40:28.444Z,7.80
2023-05-19T00:42:55.565Z,8.52
2023-05-19T00:45:23.079Z,8.15
2023-05-19T00:47:50.194Z,7.90
2023-05-19T00:50:17.702Z,9.00
2023-05-19T00:52:44.760Z,7.80
2023-05-19T00:55:14.311Z,7.65
2023-05-19T00:57:42.961Z,8.40
2023-05-19T01:00:11.670Z,10.13
2023-05-19T01:02:40.154Z,8.00
2023-05-19T01:05:08.988Z,7.90
2023-05-19T01:07:36.893Z,8.65
2023-05-19T01:10:04.930Z,8.30
2023-05-19T01:12:31.942Z,8.52
2023-05-19T01:14:59.480Z,8.40
2023-05-19T01:17:40.573Z,8.43
2023-05-19T01:22:59.509Z,8.15
2023-05-19T01:25:42.870Z,8.30
2023-05-19T01:28:32.920Z,8.27
2023-05-19T01:31:01.519Z,8.63
2023-05-19T01:33:31.180Z,7.80
2023-05-19T01:36:03.165Z,8.43
2023-05-19T01:38:30.650Z,8.32
2023-05-19T01:40:58.860Z,8.75
2023-05-19T01:43:27.552Z,8.25
2023-05-19T01:45:55.798Z,8.73
2023-05-19T01:48:23.435Z,8.75
2023-05-19T01:50:51.459Z,8.77
2023-05-19T01:53:18.651Z,8.77
2023-05-19T01:55:49.762Z,9.02
2023-05-19T01:58:46.399Z,8.43
2023-05-19T02:01:27.217Z,8.55
2023-05-19T02:04:31.731Z,9.88
2023-05-19T02:07:10.014Z,8.02
2023-05-19T02:09:52.504Z,8.98
2023-05-19T02:12:25.073Z,8.90
2023-05-19T02:15:05.238Z,9.00
2023-05-19T02:17:36.466Z,8.30
2023-05-19T02:20:05.894Z,9.18
2023-05-19T02:22:33.515Z,7.45
2023-05-19T02:25:00.585Z,9.15
2023-05-19T02:27:28.266Z,9.55
2023-05-19T02:29:55.527Z,9.10
2023-05-19T02:32:22.967Z,9.02
2023-05-19T02:34:50.190Z,9.23
2023-05-19T02:37:17.846Z,8.82
2023-05-19T02:39:45.276Z,8.85
2023-05-19T02:42:14.791Z,8.43
2023-05-19T02:44:41.858Z,9.98
2023-05-19T02:47:10.798Z,9.10
2023-05-19T02:52:07.044Z,8.50
2023-05-19T02:57:02.235Z,8.00
2023-05-19T02:59:29.627Z,9.43
2023-05-19T03:02:01.967Z,10.90
2023-05-19T03:04:30.142Z,8.35
2023-05-19T03:06:57.968Z,8.93
2023-05-19T03:09:26.193Z,8.52
2023-05-19T03:11:53.817Z,8.32
2023-05-19T03:14:24.385Z,9.18
2023-05-19T03:16:53.606Z,9.27
2023-05-19T03:19:21.744Z,9.63
2023-05-19T03:21:49.751Z,9.30
2023-05-19T03:24:16.961Z,8.77
2023-05-19T03:26:46.097Z,8.40
2023-05-19T03:29:14.515Z,8.77
2023-05-19T03:31:43.084Z,8.38
2023-05-19T03:34:10.508Z,8.68
2023-05-19T03:36:40.014Z,8.70
2023-05-19T03:39:07.257Z,8.65
2023-05-19T03:41:34.577Z,8.88
2023-05-19T03:44:01.723Z,9.02
2023-05-19T03:46:30.547Z,8.68
2023-05-19T03:48:59.280Z,8.15
2023-05-19T03:54:49.152Z,7.93
2023-05-19T03:57:16.672Z,8.07
2023-05-19T03:59:44.197Z,8.40
2023-05-19T04:05:29.234Z,7.75
2023-05-19T04:07:56.790Z,8.48
2023-05-19T04:10:26.832Z,8.93
2023-05-19T04:13:11.703Z,8.73
2023-05-19T04:15:39.006Z,8.95
2023-05-19T04:18:06.502Z,8.32
2023-05-19T04:20:34.070Z,9.45
2023-05-19T04:23:01.908Z,9.07
2023-05-19T04:25:29.104Z,8.73
2023-05-19T04:27:57.999Z,7.80
2023-05-19T04:30:25.370Z,8.80
2023-05-19T04:35:51.819Z,7.97
2023-05-19T04:38:24.294Z,8.45
2023-05-19T04:40:52.149Z,8.52
2023-05-19T04:43:19.828Z,8.65
2023-05-19T04:48:31.258Z,8.45
2023-05-19T04:51:08.629Z,8.93
2023-05-19T04:53:37.204Z,7.43
2023-05-19T04:56:05.246Z,8.52
2023-05-19T04:58:33.436Z,8.57
2023-05-19T05:01:01.739Z,9.25
2023-05-19T05:03:34.672Z,8.88
2023-05-19T05:06:01.932Z,8.88
2023-05-19T05:08:30.366Z,8.32
2023-05-19T05:10:58.226Z,8.55
2023-05-19T05:13:26.097Z,8.10
2023-05-19T05:15:54.591Z,9.15
2023-05-19T05:18:22.531Z,9.07
2023-05-19T05:20:51.166Z,8.60
2023-05-19T05:23:19.552Z,9.90
2023-05-19T05:25:47.833Z,8.98
2023-05-19T05:28:16.860Z,9.43
2023-05-19T05:30:45.088Z,8.25
2023-05-19T05:33:12.948Z,8.85
2023-05-19T05:35:41.096Z,8.27
2023-05-19T05:38:11.712Z,7.88
2023-05-19T05:40:41.973Z,8.68
2023-05-19T05:43:10.482Z,6.78
2023-05-19T05:45:38.129Z,6.63
2023-05-19T05:50:34.192Z,5.05
2023-05-19T05:53:03.094Z,6.43
2023-05-19T05:55:31.078Z,9.23
2023-05-19T05:57:59.600Z,8.13
2023-05-19T06:00:28.676Z,7.72
2023-05-19T06:02:57.613Z,7.97
2023-05-19T06:05:25.787Z,8.57
2023-05-19T06:07:54.294Z,9.18
2023-05-19T06:10:22.344Z,7.43
2023-05-19T06:12:49.998Z,7.97
2023-05-19T06:15:18.545Z,7.78
2023-05-19T06:17:52.779Z,7.30
2023-05-19T06:20:20.306Z,8.25
2023-05-19T06:22:50.294Z,8.43
2023-05-19T06:28:00.048Z,8.40
2023-05-19T06:30:27.226Z,8.13
2023-05-19T06:32:57.833Z,7.00
2023-05-19T06:35:25.214Z,7.28
2023-05-19T06:37:57.477Z,7.78
2023-05-19T06:40:24.940Z,6.55
2023-05-19T06:42:55.026Z,7.15
2023-05-19T06:45:24.030Z,7.35
2023-05-19T06:48:03.836Z,6.57
2023-05-19T06:50:31.402Z,8.82
2023-05-19T06:55:26.458Z,6.55
2023-05-19T06:57:54.013Z,7.90
2023-05-19T07:00:23.095Z,8.18
2023-05-19T07:02:51.792Z,7.15
2023-05-19T07:05:19.205Z,8.35
2023-05-19T07:07:46.760Z,6.60
2023-05-19T07:10:13.903Z,8.20
2023-05-19T07:15:27.028Z,7.65
2023-05-19T07:18:03.144Z,8.60
2023-05-19T07:20:30.857Z,6.80
2023-05-19T07:22:58.639Z,8.77
2023-05-19T07:28:09.465Z,8.82
2023-05-19T07:30:36.576Z,9.27
2023-05-19T07:33:04.118Z,7.75
2023-05-19T07:36:40.606Z,7.90
2023-05-19T07:42:07.825Z,5.60
2023-05-19T07:44:35.305Z,7.63
2023-05-19T07:47:02.429Z,8.00
2023-05-19T07:49:30.242Z,7.97
2023-05-19T07:51:57.912Z,5.22
2023-05-19T07:54:25.469Z,5.75
2023-05-19T07:56:53.264Z,6.45
2023-05-19T07:59:20.775Z,6.75
2023-05-19T08:01:48.098Z,7.40
2023-05-19T08:04:15.848Z,6.63
2023-05-19T08:06:44.579Z,4.80
2023-05-19T08:09:12.226Z,7.88
2023-05-19T08:11:39.554Z,5.93
2023-05-19T08:14:07.081Z,7.10
2023-05-19T08:16:34.123Z,8.05
2023-05-19T08:19:04.278Z,7.55
2023-05-19T08:21:34.823Z,7.85
2023-05-19T08:24:03.377Z,8.27
2023-05-19T08:28:58.140Z,7.45
2023-05-19T08:31:25.563Z,9.55
2023-05-19T08:33:53.437Z,6.00
2023-05-19T08:36:22.151Z,6.97
2023-05-19T08:38:49.667Z,6.80
2023-05-19T08:41:17.356Z,9.15
2023-05-19T08:43:45.812Z,9.10
2023-05-19T08:46:15.174Z,7.40
2023-05-19T08:48:45.546Z,8.10
2023-05-19T08:51:15.779Z,8.95
2023-05-19T08:53:51.130Z,8.77
2023-05-19T08:56:26.578Z,6.45
2023-05-19T08:58:56.697Z,8.50
2023-05-19T09:01:24.297Z,7.45
2023-05-19T09:03:52.523Z,7.18
2023-05-19T09:06:19.667Z,8.02
2023-05-19T09:08:48.340Z,9.20
2023-05-19T09:11:20.425Z,8.23
2023-05-19T09:13:48.902Z,6.40
2023-05-19T09:16:17.660Z,8.68
2023-05-19T09:18:56.639Z,8.70
2023-05-19T09:21:33.565Z,6.57
2023-05-19T09:24:07.427Z,9.75
2023-05-19T09:26:38.745Z,8.75
2023-05-19T09:29:16.712Z,8.45
2023-05-19T09:31:51.228Z,8.07
2023-05-19T09:34:19.678Z,6.90
2023-05-19T09:36:53.502Z,7.05
2023-05-19T09:39:24.949Z,8.40
2023-05-19T09:41:58.587Z,8.02
2023-05-19T09:44:50.992Z,8.13
2023-05-19T09:47:18.298Z,7.07
2023-05-19T09:49:49.241Z,8.90
2023-05-19T09:52:18.406Z,9.02
2023-05-19T09:54:46.102Z,7.35
2023-05-19T09:57:13.779Z,8.23
2023-05-19T10:02:16.849Z,5.65
2023-05-19T10:04:48.760Z,7.80
2023-05-19T10:07:17.761Z,7.25
2023-05-19T10:09:46.270Z,7.85
2023-05-19T10:14:41.503Z,6.90
2023-05-19T10:17:09.954Z,8.68
2023-05-19T10:19:38.822Z,8.15
2023-05-19T10:22:07.183Z,7.82
2023-05-19T10:24:35.233Z,7.90
2023-05-19T10:27:12.799Z,6.10
2023-05-19T10:29:46.097Z,7.90
2023-05-19T10:32:22.297Z,7.95
2023-05-19T10:34:59.421Z,5.38
2023-05-19T10:40:26.824Z,8.02
2023-05-19T10:43:25.438Z,7.68
2023-05-19T10:45:55.012Z,4.90
2023-05-19T10:48:23.867Z,4.47
2023-05-19T10:50:56.773Z,4.82
2023-05-19T10:53:51.213Z,5.70
2023-05-19T10:57:03.032Z,4.50
2023-05-19T10:59:32.900Z,4.65
2023-05-19T11:02:10.144Z,5.47
2023-05-19T11:04:54.483Z,5.00
2023-05-19T11:07:22.537Z,5.38
2023-05-19T11:09:52.789Z,7.03
2023-05-19T11:12:26.187Z,5.47
2023-05-19T11:14:54.894Z,6.47
2023-05-19T11:17:25.423Z,10.40
2023-05-19T11:19:57.057Z,14.10
2023-05-19T11:22:26.641Z,5.50
2023-05-19T11:24:57.507Z,5.20
2023-05-19T11:27:31.726Z,5.72
2023-05-19T11:30:13.967Z,5.50
2023-05-19T11:32:44.479Z,4.03
2023-05-19T11:35:23.717Z,4.55
2023-05-19T11:40:49.839Z,4.65
2023-05-19T11:43:18.387Z,5.78
2023-05-19T11:45:46.976Z,5.00
2023-05-19T11:48:16.134Z,3.05
2023-05-19T11:50:44.293Z,5.53
2023-05-19T11:53:17.093Z,4.72
2023-05-19T11:55:49.640Z,4.57
2023-05-19T11:58:17.599Z,5.22
2023-05-19T12:00:49.809Z,3.70
2023-05-19T12:03:28.847Z,4.95
2023-05-19T12:05:57.231Z,4.43
2023-05-19T12:08:25.629Z,5.15
2023-05-19T12:10:53.644Z,6.05
2023-05-19T12:13:23.097Z,4.22
2023-05-19T12:15:53.378Z,5.35
2023-05-19T12:18:30.812Z,3.92
2023-05-19T12:20:59.349Z,3.53
2023-05-19T12:25:56.811Z,4.28
2023-05-19T12:28:24.147Z,7.45
2023-05-19T12:30:58.590Z,4.93
2023-05-19T12:33:26.865Z,5.18
2023-05-19T12:35:55.570Z,5.05
2023-05-19T12:38:23.099Z,4.47
2023-05-19T12:40:51.378Z,4.13
2023-05-19T12:43:23.411Z,4.45
2023-05-19T12:45:54.192Z,3.80
2023-05-19T12:48:24.607Z,4.43
2023-05-19T12:50:56.010Z,4.43
2023-05-19T12:53:27.719Z,3.55
2023-05-19T12:55:56.558Z,3.55
2023-05-19T12:58:24.299Z,3.47
2023-05-19T13:03:23.719Z,3.70
2023-05-19T13:05:54.124Z,2.58
2023-05-19T13:08:24.205Z,3.17
2023-05-19T13:10:52.288Z,2.97
2023-05-19T13:13:21.215Z,3.47
2023-05-19T13:15:49.553Z,3.13
2023-05-19T13:18:17.484Z,3.88
2023-05-19T13:20:46.603Z,2.90
2023-05-19T13:23:14.671Z,3.30
2023-05-19T13:25:46.934Z,3.20
2023-05-19T13:28:29.784Z,3.92
2023-05-19T13:31:12.008Z,4.03
2023-05-19T13:36:08.345Z,3.92
2023-05-19T13:38:35.887Z,4.20
2023-05-19T13:41:07.232Z,3.45
2023-05-19T13:43:41.103Z,4.75
2023-05-19T13:46:08.645Z,2.97
2023-05-19T13:48:36.641Z,3.45
2023-05-19T13:51:03.949Z,2.85
2023-05-19T13:53:33.062Z,4.70
2023-05-19T13:56:01.739Z,4.10
2023-05-19T13:58:30.710Z,4.30
2023-05-19T14:01:03.321Z,3.90
2023-05-19T14:03:39.869Z,3.53
2023-05-19T14:06:16.076Z,3.08
2023-05-19T14:08:44.846Z,4.88
2023-05-19T14:11:24.928Z,3.65
2023-05-19T14:13:53.068Z,2.95
2023-05-19T14:16:22.220Z,4.38
2023-05-19T14:18:52.917Z,4.45
2023-05-19T14:21:20.268Z,3.90
2023-05-19T14:23:48.049Z,4.07
2023-05-19T14:26:16.330Z,3.17
2023-05-19T14:28:44.026Z,3.15
2023-05-19T14:31:14.914Z,3.92
2023-05-19T14:33:44.270Z,3.78
2023-05-19T14:36:11.975Z,4.18
2023-05-19T14:38:39.694Z,3.45
2023-05-19T14:41:07.510Z,4.60
2023-05-19T14:43:35.804Z,5.00
2023-05-19T14:46:03.591Z,3.58
2023-05-19T14:48:31.234Z,3.97
2023-05-19T14:50:58.485Z,5.28
2023-05-19T14:56:11.729Z,4.22
2023-05-19T14:58:39.270Z,4.40
2023-05-19T15:01:06.430Z,5.03
2023-05-19T15:03:33.935Z,4.03
2023-05-19T15:06:01.520Z,4.28
2023-05-19T15:08:29.158Z,3.95
2023-05-19T15:11:17.473Z,4.30
2023-05-19T15:13:45.971Z,4.28
2023-05-19T15:16:18.051Z,4.00
2023-05-19T15:18:49.735Z,4.63
2023-05-19T15:21:18.291Z,3.45
2023-05-19T15:24:22.486Z,4.32
2023-05-19T15:26:52.001Z,4.43
2023-05-19T15:29:20.831Z,4.90
2023-05-19T15:31:52.085Z,4.75
2023-05-19T15:34:21.042Z,3.03
2023-05-19T15:36:48.377Z,4.70
2023-05-19T15:39:16.308Z,4.35
2023-05-19T15:47:09.741Z,5.10
2023-05-19T15:49:39.665Z,4.43
2023-05-19T15:52:11.254Z,4.80
2023-05-19T15:54:45.420Z,4.72
2023-05-19T15:57:13.686Z,5.07
2023-05-19T15:59:41.174Z,5.30
2023-05-19T16:02:08.770Z,5.88
2023-05-19T16:04:37.879Z,5.50
2023-05-19T16:07:05.223Z,5.95
2023-05-19T16:09:32.701Z,4.72
2023-05-19T16:11:59.998Z,4.70
2023-05-19T16:14:31.197Z,5.88
2023-05-19T16:16:58.557Z,5.53
2023-05-19T16:19:26.925Z,5.53
2023-05-19T16:21:54.144Z,5.45
2023-05-19T16:24:25.452Z,5.10
2023-05-19T16:26:53.953Z,5.70
2023-05-19T16:29:21.778Z,4.97
2023-05-19T16:31:49.161Z,5.18
2023-05-19T16:34:16.750Z,5.07
2023-05-19T16:36:44.202Z,4.53
2023-05-19T16:39:11.984Z,4.95
2023-05-19T16:41:39.089Z,5.43
2023-05-19T16:44:06.486Z,5.10
2023-05-19T16:46:34.299Z,5.80
2023-05-19T16:51:28.787Z,5.50
2023-05-19T16:54:01.459Z,5.82
2023-05-19T16:56:33.394Z,5.40
2023-05-19T16:59:01.149Z,5.72
2023-05-19T17:01:28.300Z,5.22
2023-05-19T17:03:56.088Z,5.82
2023-05-19T17:06:23.238Z,5.45
2023-05-19T17:08:51.027Z,14.80
2023-05-19T17:11:18.743Z,10.00
2023-05-19T17:13:46.889Z,7.50
2023-05-19T17:16:14.121Z,7.85
2023-05-19T17:18:44.936Z,8.98
2023-05-19T17:21:12.227Z,7.15
2023-05-19T17:23:39.692Z,8.93
2023-05-19T17:26:06.847Z,22.83
2023-05-19T17:28:34.787Z,10.18
2023-05-19T17:33:40.139Z,13.60
2023-05-19T17:36:08.216Z,15.57
2023-05-19T17:38:40.340Z,16.00
2023-05-19T17:41:10.115Z,7.57
2023-05-19T17:43:38.416Z,12.70
2023-05-19T17:46:06.708Z,7.47
2023-05-19T17:48:34.807Z,8.02
2023-05-19T17:51:05.088Z,7.63
2023-05-19T17:53:40.718Z,6.70
2023-05-19T17:56:11.291Z,6.15
2023-05-19T17:58:39.623Z,6.28
2023-05-19T18:01:07.133Z,7.43
2023-05-19T18:03:35.430Z,5.93
2023-05-19T18:06:03.064Z,6.20
2023-05-19T18:08:31.608Z,7.80
2023-05-19T18:11:08.160Z,5.70
2023-05-19T18:13:40.040Z,5.72
2023-05-19T18:16:07.429Z,6.00
2023-05-19T18:18:37.546Z,6.55
2023-05-19T18:21:04.778Z,5.90
2023-05-19T18:23:36.547Z,6.70
2023-05-19T18:26:03.965Z,6.80
2023-05-19T18:28:31.837Z,7.43
2023-05-19T18:31:04.772Z,6.50
2023-05-19T18:33:33.384Z,6.45
2023-05-19T18:36:01.641Z,6.72
2023-05-19T18:38:29.213Z,6.53
2023-05-19T18:40:57.591Z,6.13
2023-05-19T18:43:30.328Z,6.30
2023-05-19T18:46:00.512Z,6.70
2023-05-19T18:48:28.262Z,5.60
2023-05-19T18:50:55.887Z,6.68
2023-05-19T18:53:23.435Z,6.35
2023-05-19T18:55:50.734Z,5.68
2023-05-19T18:58:18.826Z,5.05
2023-05-19T19:00:46.066Z,5.07
2023-05-19T19:03:14.453Z,4.43
2023-05-19T19:05:42.168Z,4.07
2023-05-19T19:08:09.853Z,3.80
2023-05-19T19:10:40.543Z,4.57
2023-05-19T19:13:08.170Z,2.80
2023-05-19T19:15:35.334Z,5.40
2023-05-19T19:18:02.900Z,5.70
2023-05-19T19:20:31.937Z,5.68
2023-05-19T19:23:02.275Z,6.10
2023-05-19T19:25:29.447Z,6.40
2023-05-19T19:27:58.048Z,5.82
2023-05-19T19:30:28.564Z,5.45
2023-05-19T19:32:57.285Z,4.43
2023-05-19T19:35:26.749Z,4.38
2023-05-19T19:38:00.187Z,5.20
2023-05-19T19:40:34.565Z,5.88
2023-05-19T19:43:07.696Z,6.20
2023-05-19T19:48:38.081Z,5.78
2023-05-19T19:51:07.829Z,5.57
2023-05-19T19:53:46.177Z,6.00
2023-05-19T19:56:38.174Z,5.97
2023-05-19T19:59:05.265Z,6.18
2023-05-19T20:01:33.963Z,5.57
2023-05-19T20:04:09.478Z,5.95
2023-05-19T20:06:38.859Z,6.00
2023-05-19T20:09:07.939Z,6.45
2023-05-19T20:11:36.124Z,6.82
2023-05-19T20:14:03.138Z,6.20
2023-05-19T20:16:30.756Z,5.38
2023-05-19T20:18:58.914Z,5.32
2023-05-19T20:23:53.886Z,5.88
2023-05-19T20:26:22.561Z,6.05
2023-05-19T20:28:49.618Z,6.28
2023-05-19T20:31:17.056Z,6.20
2023-05-19T20:33:44.318Z,5.50
2023-05-19T20:36:11.771Z,5.30
2023-05-19T20:38:41.308Z,4.97
2023-05-19T20:41:09.051Z,3.80
2023-05-19T20:43:36.462Z,4.15
2023-05-19T20:46:04.153Z,4.97
2023-05-19T20:48:34.375Z,4.72
2023-05-19T20:51:03.085Z,4.53
2023-05-19T20:53:33.270Z,4.63
2023-05-19T20:56:00.935Z,4.63
2023-05-19T20:58:30.439Z,4.85
2023-05-19T21:01:02.903Z,4.80
2023-05-19T21:03:30.739Z,4.88
2023-05-19T21:05:58.152Z,5.43
2023-05-19T21:08:26.420Z,4.88
2023-05-19T21:10:54.298Z,5.57
2023-05-19T21:13:25.456Z,4.88
2023-05-19T21:15:52.990Z,5.13
2023-05-19T21:18:20.108Z,4.85
2023-05-19T21:20:47.658Z,4.80
2023-05-19T21:23:14.726Z,5.45
2023-05-19T21:25:44.574Z,5.60
2023-05-19T21:28:14.002Z,5.50
2023-05-19T21:30:41.811Z,5.13
2023-05-19T21:33:09.313Z,4.80
2023-05-19T21:35:37.000Z,5.10
2023-05-19T21:38:15.681Z,5.22
2023-05-19T21:41:15.167Z,4.85
2023-05-19T21:43:45.199Z,4.68
2023-05-19T21:46:13.133Z,4.80
2023-05-19T21:48:40.962Z,6.18
2023-05-19T21:51:11.122Z,5.50
2023-05-19T21:53:38.795Z,5.30
2023-05-19T21:56:06.396Z,5.32
2023-05-19T21:58:33.455Z,4.90
2023-05-19T22:01:00.834Z,5.40
2023-05-19T22:03:32.110Z,5.00
2023-05-19T22:05:59.632Z,5.18
2023-05-19T22:08:28.450Z,4.90
2023-05-19T22:10:57.441Z,4.90
2023-05-19T22:13:24.601Z,4.20
2023-05-19T22:15:52.043Z,4.78
2023-05-19T22:18:19.565Z,3.10
2023-05-19T22:20:46.962Z,4.70
2023-05-19T22:23:15.240Z,4.88
2023-05-19T22:25:42.601Z,4.50
2023-05-19T22:28:09.658Z,4.07
2023-05-19T22:30:41.136Z,3.80
2023-05-19T22:33:09.603Z,4.45
2023-05-19T22:35:37.623Z,4.60
2023-05-19T22:38:08.871Z,4.20
2023-05-19T22:40:39.722Z,4.88
2023-05-19T22:43:09.976Z,4.88
2023-05-19T22:45:37.789Z,4.72
2023-05-19T22:48:05.548Z,4.90
2023-05-19T22:50:35.536Z,4.80
2023-05-19T22:53:02.752Z,5.22
2023-05-19T22:55:30.071Z,5.30
2023-05-19T22:57:57.162Z,4.55
2023-05-19T23:00:24.585Z,4.28
2023-05-19T23:02:51.637Z,4.82
2023-05-19T23:05:19.589Z,4.93
2023-05-19T23:07:46.639Z,4.97
2023-05-19T23:10:13.967Z,5.60
2023-05-19T23:12:41.382Z,5.20
2023-05-19T23:15:09.787Z,5.30
2023-05-19T23:17:37.489Z,5.13
2023-05-19T23:20:05.957Z,4.68
2023-05-19T23:22:33.057Z,5.38
2023-05-19T23:25:02.006Z,5.07
2023-05-19T23:27:29.061Z,5.53
2023-05-19T23:29:56.455Z,5.20
2023-05-19T23:32:23.623Z,5.00
2023-05-19T23:34:51.215Z,5.20
2023-05-19T23:37:18.260Z,5.63
2023-05-19T23:39:46.318Z,4.97
2023-05-19T23:42:13.396Z,5.00
2023-05-19T23:44:40.846Z,4.95
2023-05-19T23:47:08.069Z,4.63
2023-05-19T23:49:35.900Z,4.63
2023-05-19T23:52:03.194Z,5.32
2023-05-19T23:54:31.182Z,5.35
2023-05-19T23:56:59.052Z,4.55
2023-05-19T23:59:26.820Z,4.57
